LTAG/ADF METAR and TAF weather

Enter ICAO airport designator
Station Type Date Time Source
LTAG METAR 2019/10/22 16:20 UTC NOAA

LTAG 221620Z 02003KT CAVOK 20/12 Q1013 NOSIG


Station Type Date Time Source
LTAG Decoded METAR 2019/10/22 16:20 UTC NOAA

Adana / Incirlik, Turkey (LTAG) 37-00N 035-25E 66M
Oct 22, 2019 - 12:20 PM EDT / 2019.10.22 1620 UTC
Wind: from the NNE (020 degrees) at 3 MPH (3 KT):0
Visibility: greater than 7 mile(s):0
Temperature: 68 F (20 C)
Dew Point: 53 F (12 C)
Relative Humidity: 59%
Pressure (altimeter): 29.91 in. Hg (1013 hPa)
ob: LTAG 221620Z 02003KT CAVOK 20/12 Q1013 NOSIG
cycle: 16

Station Type Date Time Source
LTAG TAF 2019/10/22 12:03 UTC NOAA

TAF TAF LTAG 221040Z 2212/2312 05008KT 9999 FEW035 BKN100
BECMG 2215/2218 CAVOK

Example: see airport list